createdAt,value
2023-03-03T00:03:05.453Z,51.10
2023-03-03T00:05:36.189Z,51.12
2023-03-03T00:08:07.459Z,51.08
2023-03-03T00:10:37.197Z,50.99
2023-03-03T00:13:08.887Z,50.82
2023-03-03T00:15:39.276Z,50.70
2023-03-03T00:18:33.347Z,50.66
2023-03-03T00:21:34.921Z,50.93
2023-03-03T00:24:18.134Z,50.97
2023-03-03T00:27:12.438Z,51.15
2023-03-03T00:30:03.145Z,50.92
2023-03-03T00:32:54.043Z,51.14
2023-03-03T00:35:37.771Z,50.76
2023-03-03T00:38:26.485Z,50.60
2023-03-03T00:40:56.474Z,50.39
2023-03-03T00:43:31.267Z,50.36
2023-03-03T00:46:01.423Z,49.60
2023-03-03T00:48:34.223Z,49.50
2023-03-03T00:51:17.903Z,49.09
2023-03-03T00:53:47.925Z,49.11
2023-03-03T00:56:19.021Z,49.10
2023-03-03T00:58:50.329Z,49.33
2023-03-03T01:04:08.362Z,49.28
2023-03-03T01:06:38.275Z,49.14
2023-03-03T01:09:08.283Z,48.74
2023-03-03T01:11:39.502Z,48.65
2023-03-03T01:14:09.894Z,48.42
2023-03-03T01:16:58.183Z,48.74
2023-03-03T01:19:28.302Z,48.47
2023-03-03T01:22:00.918Z,48.35
2023-03-03T01:24:31.578Z,48.45
2023-03-03T01:27:01.601Z,48.46
2023-03-03T01:29:31.775Z,48.43
2023-03-03T01:32:02.140Z,48.27
2023-03-03T01:34:32.596Z,48.09
2023-03-03T01:37:03.207Z,48.39
2023-03-03T01:39:33.350Z,48.25
2023-03-03T01:42:06.906Z,48.40
2023-03-03T01:44:37.034Z,48.27
2023-03-03T01:50:06.691Z,48.43
2023-03-03T01:52:41.512Z,48.24
2023-03-03T01:55:38.246Z,48.02
2023-03-03T01:58:14.767Z,47.79
2023-03-03T02:01:14.094Z,47.66
2023-03-03T02:04:03.915Z,47.91
2023-03-03T02:06:39.473Z,47.54
2023-03-03T02:12:10.658Z,47.75
2023-03-03T02:14:40.818Z,48.11
2023-03-03T02:20:17.254Z,47.60
2023-03-03T02:23:20.653Z,47.83
2023-03-03T02:26:02.540Z,47.74
2023-03-03T02:28:36.006Z,47.59
2023-03-03T02:31:15.218Z,47.26
2023-03-03T02:33:49.201Z,47.09
2023-03-03T02:36:25.878Z,46.70
2023-03-03T02:39:14.846Z,47.07
2023-03-03T02:42:18.660Z,47.03
2023-03-03T02:44:53.763Z,47.13
2023-03-03T02:50:28.058Z,47.25
2023-03-03T02:52:58.240Z,46.97
2023-03-03T02:55:28.345Z,46.54
2023-03-03T02:57:58.438Z,46.36
2023-03-03T03:00:28.856Z,46.20
2023-03-03T03:02:59.058Z,46.77
2023-03-03T03:05:29.253Z,46.96
2023-03-03T03:08:04.410Z,46.91
2023-03-03T03:10:53.289Z,47.15
2023-03-03T03:16:10.838Z,46.03
2023-03-03T03:18:59.249Z,45.96
2023-03-03T03:21:30.334Z,46.09
2023-03-03T03:24:02.088Z,46.25
2023-03-03T03:26:33.197Z,46.46
2023-03-03T03:29:03.655Z,46.12
2023-03-03T03:31:34.671Z,46.50
2023-03-03T03:34:06.448Z,46.71
2023-03-03T03:36:54.484Z,46.45
2023-03-03T03:39:26.371Z,46.48
2023-03-03T03:41:57.076Z,46.15
2023-03-03T03:44:45.390Z,46.19
2023-03-03T03:50:02.891Z,46.25
2023-03-03T03:52:32.876Z,45.73
2023-03-03T03:55:02.918Z,45.57
2023-03-03T03:57:33.059Z,46.04
2023-03-03T04:00:03.316Z,45.62
2023-03-03T04:02:43.634Z,45.63
2023-03-03T04:05:17.156Z,45.62
2023-03-03T04:07:48.028Z,45.87
2023-03-03T04:10:20.420Z,45.70
2023-03-03T04:12:52.901Z,45.59
2023-03-03T04:15:41.131Z,45.69
2023-03-03T04:20:57.268Z,46.00
2023-03-03T04:23:28.902Z,46.39
2023-03-03T04:25:59.659Z,45.33
2023-03-03T04:28:30.041Z,45.84
2023-03-03T04:31:01.589Z,45.73
2023-03-03T04:33:34.008Z,45.64
2023-03-03T04:36:23.580Z,46.05
2023-03-03T04:44:45.719Z,45.46
2023-03-03T04:47:17.053Z,45.58
2023-03-03T04:49:47.264Z,45.51
2023-03-03T04:52:17.567Z,45.63
2023-03-03T04:54:48.873Z,45.84
2023-03-03T04:57:19.638Z,46.31
2023-03-03T04:59:49.921Z,45.88
2023-03-03T05:02:21.564Z,46.03
2023-03-03T05:04:51.935Z,46.16
2023-03-03T05:07:23.041Z,46.00
2023-03-03T05:12:57.237Z,45.63
2023-03-03T05:15:27.165Z,45.46
2023-03-03T05:17:58.607Z,45.21
2023-03-03T05:20:28.802Z,45.18
2023-03-03T05:23:01.842Z,45.43
2023-03-03T05:25:51.263Z,44.91
2023-03-03T05:31:07.381Z,44.91
2023-03-03T05:33:57.196Z,44.79
2023-03-03T05:36:28.295Z,45.31
2023-03-03T05:38:58.782Z,45.23
2023-03-03T05:41:30.527Z,44.54
2023-03-03T05:44:20.607Z,44.80
2023-03-03T05:46:50.812Z,44.73
2023-03-03T05:49:21.687Z,44.64
2023-03-03T05:54:55.196Z,45.21
2023-03-03T05:57:25.745Z,44.81
2023-03-03T05:59:55.884Z,44.58
2023-03-03T06:02:26.313Z,45.01
2023-03-03T06:04:56.592Z,45.22
2023-03-03T06:07:26.533Z,45.12
2023-03-03T06:09:56.777Z,44.94
2023-03-03T06:12:27.641Z,44.85
2023-03-03T06:14:57.901Z,44.43
2023-03-03T06:17:28.006Z,44.83
2023-03-03T06:20:16.470Z,44.76
2023-03-03T06:22:46.549Z,44.85
2023-03-03T06:25:16.508Z,44.41
2023-03-03T06:27:46.973Z,44.96
2023-03-03T06:30:35.485Z,44.71
2023-03-03T06:33:05.691Z,44.98
2023-03-03T06:35:35.844Z,44.85
2023-03-03T06:38:07.158Z,44.64
2023-03-03T06:40:37.523Z,44.59
2023-03-03T06:43:07.474Z,44.32
2023-03-03T06:45:37.663Z,44.17
2023-03-03T06:48:08.457Z,43.71
2023-03-03T06:50:38.464Z,44.05
2023-03-03T06:56:04.115Z,43.44
2023-03-03T06:58:34.281Z,43.17
2023-03-03T07:01:04.759Z,43.18
2023-03-03T07:03:38.277Z,42.99
2023-03-03T07:06:28.900Z,42.70
2023-03-03T07:09:26.269Z,42.80
2023-03-03T07:15:17.871Z,42.48
2023-03-03T07:18:25.748Z,42.46
2023-03-03T07:20:55.892Z,43.01
2023-03-03T07:23:44.552Z,42.54
2023-03-03T07:26:37.287Z,42.63
2023-03-03T07:29:32.736Z,43.01
2023-03-03T07:32:04.663Z,42.94
2023-03-03T07:34:56.756Z,43.13
2023-03-03T07:37:45.435Z,42.92
2023-03-03T07:40:41.528Z,42.71
2023-03-03T07:43:38.247Z,43.13
2023-03-03T07:46:27.595Z,43.17
2023-03-03T07:48:59.999Z,43.23
2023-03-03T07:51:38.902Z,42.82
2023-03-03T07:54:33.254Z,42.99
2023-03-03T07:57:21.377Z,42.84
2023-03-03T08:00:21.678Z,42.87
2023-03-03T08:03:00.956Z,42.63
2023-03-03T08:05:38.128Z,42.75
2023-03-03T08:08:47.481Z,42.68
2023-03-03T08:11:35.476Z,42.71
2023-03-03T08:17:01.772Z,42.69
2023-03-03T08:19:34.171Z,42.70
2023-03-03T08:22:29.653Z,42.79
2023-03-03T08:24:59.783Z,42.85
2023-03-03T08:27:30.013Z,42.62
2023-03-03T08:30:00.349Z,43.09
2023-03-03T08:32:30.452Z,42.57
2023-03-03T08:35:00.415Z,42.76
2023-03-03T08:37:30.487Z,42.68
2023-03-03T08:40:00.397Z,42.33
2023-03-03T08:42:32.335Z,42.45
2023-03-03T08:45:20.862Z,42.36
2023-03-03T08:48:09.967Z,42.33
2023-03-03T08:50:40.816Z,42.38
2023-03-03T08:55:56.413Z,42.75
2023-03-03T08:58:35.064Z,41.91
2023-03-03T09:01:07.138Z,42.30
2023-03-03T09:03:37.170Z,42.57
2023-03-03T09:06:07.333Z,42.26
2023-03-03T09:08:37.272Z,42.03
2023-03-03T09:11:15.225Z,41.63
2023-03-03T09:13:45.747Z,41.98
2023-03-03T09:16:17.696Z,41.82
2023-03-03T09:18:49.449Z,41.99
2023-03-03T09:21:35.028Z,42.07
2023-03-03T09:24:05.203Z,41.77
2023-03-03T09:26:51.593Z,41.26
2023-03-03T09:29:30.286Z,41.54
2023-03-03T09:32:04.837Z,41.86
2023-03-03T09:34:44.751Z,41.63
2023-03-03T09:37:34.603Z,41.89
2023-03-03T09:40:29.756Z,41.61
2023-03-03T09:43:33.110Z,41.10
2023-03-03T09:46:46.923Z,41.31
2023-03-03T09:49:32.351Z,41.53
2023-03-03T09:52:23.655Z,41.10
2023-03-03T09:55:37.858Z,41.69
2023-03-03T09:58:33.054Z,41.57
2023-03-03T10:01:45.931Z,41.62
2023-03-03T10:04:45.612Z,41.63
2023-03-03T10:07:52.629Z,41.29
2023-03-03T10:10:37.207Z,41.10
2023-03-03T10:13:09.987Z,40.97
2023-03-03T10:16:12.287Z,40.47
2023-03-03T10:18:59.475Z,40.51
2023-03-03T10:21:42.228Z,40.80
2023-03-03T10:24:32.472Z,41.52
2023-03-03T10:27:28.397Z,41.34
2023-03-03T10:30:13.162Z,41.58
2023-03-03T10:33:13.412Z,41.25
2023-03-03T10:36:06.260Z,41.29
2023-03-03T10:38:58.325Z,41.38
2023-03-03T10:41:44.095Z,41.81
2023-03-03T10:44:46.406Z,41.78
2023-03-03T10:48:04.970Z,41.84
2023-03-03T10:50:53.750Z,41.71
2023-03-03T10:54:06.171Z,41.67
2023-03-03T10:56:58.806Z,42.23
2023-03-03T11:00:13.461Z,42.51
2023-03-03T11:03:10.966Z,42.22
2023-03-03T11:05:46.991Z,42.53
2023-03-03T11:08:39.035Z,42.69
2023-03-03T11:11:32.314Z,42.62
2023-03-03T11:14:41.035Z,42.63
2023-03-03T11:17:20.184Z,42.86
2023-03-03T11:20:09.034Z,42.90
2023-03-03T11:23:17.731Z,42.82
2023-03-03T11:26:35.172Z,43.09
2023-03-03T11:29:24.585Z,43.23
2023-03-03T11:32:15.664Z,43.06
2023-03-03T11:35:07.059Z,43.29
2023-03-03T11:37:48.140Z,43.40
2023-03-03T11:40:26.033Z,43.54
2023-03-03T11:43:35.610Z,43.50
2023-03-03T11:46:14.352Z,43.37
2023-03-03T11:48:53.112Z,43.34
2023-03-03T11:51:52.913Z,43.43
2023-03-03T11:54:29.185Z,43.61
2023-03-03T11:57:13.233Z,43.78
2023-03-03T11:59:51.774Z,43.68
2023-03-03T12:05:45.528Z,43.81
2023-03-03T12:08:39.063Z,43.97
2023-03-03T12:11:25.774Z,44.02
2023-03-03T12:14:38.029Z,44.19
2023-03-03T12:20:22.859Z,43.93
2023-03-03T12:23:16.837Z,43.78
2023-03-03T12:25:59.085Z,43.99
2023-03-03T12:28:40.622Z,43.79
2023-03-03T12:31:37.631Z,44.33
2023-03-03T12:34:31.895Z,44.44
2023-03-03T12:37:31.163Z,43.98
2023-03-03T12:40:06.279Z,44.28
2023-03-03T12:42:57.256Z,44.34
2023-03-03T12:45:48.352Z,44.44
2023-03-03T12:48:39.693Z,44.27
2023-03-03T12:51:30.969Z,44.80
2023-03-03T12:54:16.361Z,44.42
2023-03-03T12:57:06.743Z,44.76
2023-03-03T13:00:03.860Z,44.94
2023-03-03T13:03:09.455Z,45.32
2023-03-03T13:06:00.520Z,45.75
2023-03-03T13:08:47.917Z,45.74
2023-03-03T13:11:41.040Z,46.03
2023-03-03T13:14:13.931Z,45.99
2023-03-03T13:17:17.134Z,46.09
2023-03-03T14:05:14.759Z,50.13
2023-03-03T14:07:59.768Z,50.04
2023-03-03T14:13:52.510Z,50.14
2023-03-03T14:17:01.142Z,50.22
2023-03-03T14:19:35.225Z,49.79
2023-03-03T14:22:41.580Z,49.42
2023-03-03T14:25:17.430Z,49.60
2023-03-03T14:27:47.437Z,49.70
2023-03-03T14:30:37.111Z,49.28
2023-03-03T14:33:31.809Z,49.22
2023-03-03T14:36:06.989Z,48.98
2023-03-03T14:38:36.960Z,49.04
2023-03-03T14:41:18.638Z,49.11
2023-03-03T14:44:03.312Z,49.39
2023-03-03T14:46:39.246Z,48.86
2023-03-03T14:49:35.638Z,48.68
2023-03-03T14:52:23.589Z,48.68
2023-03-03T14:54:57.890Z,48.79
2023-03-03T14:57:49.497Z,49.00
2023-03-03T15:00:22.296Z,48.76
2023-03-03T15:02:55.509Z,48.34
2023-03-03T15:05:28.346Z,48.46
2023-03-03T15:08:18.806Z,48.43
2023-03-03T15:11:35.735Z,48.78
2023-03-03T15:14:19.226Z,48.73
2023-03-03T15:16:49.654Z,48.99
2023-03-03T15:19:40.069Z,49.79
2023-03-03T15:22:37.544Z,49.91
2023-03-03T15:25:20.647Z,50.01
2023-03-03T15:28:18.397Z,50.35
2023-03-03T15:30:54.184Z,50.44
2023-03-03T15:33:48.708Z,50.28
2023-03-03T15:36:43.119Z,50.55
2023-03-03T15:39:44.384Z,50.45
2023-03-03T15:46:02.095Z,50.53
2023-03-03T15:48:40.927Z,51.11
2023-03-03T15:51:57.359Z,51.72
2023-03-03T15:54:44.079Z,52.44
2023-03-03T15:57:40.098Z,52.33
2023-03-03T16:00:33.031Z,53.05
2023-03-03T16:03:47.908Z,53.07
2023-03-03T16:06:41.768Z,53.19
2023-03-03T16:09:58.689Z,53.95
2023-03-03T16:12:57.750Z,54.36
2023-03-03T16:15:53.556Z,52.96
2023-03-03T16:18:44.780Z,52.55
2023-03-03T16:24:35.642Z,53.38
2023-03-03T16:27:18.079Z,53.55
2023-03-03T16:30:14.108Z,53.94
2023-03-03T16:33:22.215Z,53.40
2023-03-03T16:35:57.864Z,53.53
2023-03-03T16:38:34.152Z,53.25
2023-03-03T16:41:09.622Z,53.63
2023-03-03T16:44:05.915Z,53.46
2023-03-03T16:46:52.133Z,53.57
2023-03-03T16:49:58.101Z,52.85
2023-03-03T16:52:56.437Z,53.49
2023-03-03T16:55:59.748Z,53.16
2023-03-03T16:58:59.928Z,53.25
2023-03-03T17:01:41.838Z,52.69
2023-03-03T17:04:46.004Z,53.53
2023-03-03T17:07:38.998Z,52.62
2023-03-03T17:10:30.327Z,52.93
2023-03-03T17:13:26.815Z,52.57
2023-03-03T17:16:25.346Z,54.42
2023-03-03T17:19:12.284Z,53.86
2023-03-03T17:22:06.468Z,53.80
2023-03-03T17:24:47.950Z,53.56
2023-03-03T17:27:17.664Z,53.92
2023-03-03T17:30:02.473Z,53.91
2023-03-03T17:32:50.692Z,53.55
2023-03-03T17:35:29.953Z,53.57
2023-03-03T17:38:39.414Z,53.22
2023-03-03T17:41:52.630Z,53.55
2023-03-03T17:45:10.015Z,52.96
2023-03-03T17:48:00.755Z,54.20
2023-03-03T17:50:39.341Z,54.08
2023-03-03T17:53:18.136Z,54.60
2023-03-03T17:56:16.292Z,54.75
2023-03-03T17:59:17.456Z,54.41
2023-03-03T18:02:03.401Z,53.85
2023-03-03T18:04:44.622Z,54.45
2023-03-03T18:07:20.382Z,54.43
2023-03-03T18:10:26.390Z,55.01
2023-03-03T18:13:10.299Z,53.53
2023-03-03T18:16:14.738Z,54.18
2023-03-03T18:19:11.825Z,54.07
2023-03-03T18:22:12.951Z,54.62
2023-03-03T18:25:14.234Z,54.03
2023-03-03T18:27:48.871Z,53.58
2023-03-03T18:30:26.968Z,53.86
2023-03-03T18:32:59.903Z,54.34
2023-03-03T18:35:36.038Z,54.15
2023-03-03T18:38:18.169Z,54.03
2023-03-03T18:41:06.875Z,54.90
2023-03-03T18:43:45.580Z,54.80
2023-03-03T18:46:27.817Z,55.13
2023-03-03T18:49:03.465Z,55.00
2023-03-03T18:51:42.901Z,54.96
2023-03-03T18:54:23.684Z,54.53
2023-03-03T18:57:21.309Z,55.67
2023-03-03T18:59:57.780Z,54.49
2023-03-03T19:02:40.093Z,54.47
2023-03-03T19:05:36.746Z,54.49
2023-03-03T19:08:18.333Z,54.22
2023-03-03T19:11:01.580Z,54.45
2023-03-03T19:13:40.308Z,54.42
2023-03-03T19:16:38.943Z,54.66
2023-03-03T19:19:18.502Z,54.46
2023-03-03T19:21:53.577Z,54.62
2023-03-03T19:25:10.345Z,54.47
2023-03-03T19:27:52.297Z,54.82
2023-03-03T19:31:01.500Z,54.53
2023-03-03T19:34:08.533Z,55.10
2023-03-03T19:36:59.892Z,54.77
2023-03-03T19:39:35.715Z,54.78
2023-03-03T19:42:14.738Z,54.85
2023-03-03T19:45:18.442Z,54.38
2023-03-03T19:48:07.555Z,54.47
2023-03-03T19:50:47.638Z,54.35
2023-03-03T19:53:29.132Z,54.17
2023-03-03T19:56:11.990Z,54.32
2023-03-03T19:58:47.464Z,54.12
2023-03-03T20:01:36.503Z,54.31
2023-03-03T20:04:33.330Z,54.25
2023-03-03T20:07:49.713Z,54.47
2023-03-03T20:10:44.406Z,54.35
2023-03-03T20:13:31.328Z,54.36
2023-03-03T20:16:29.178Z,54.29
2023-03-03T20:19:15.018Z,54.37
2023-03-03T20:22:14.193Z,54.50
2023-03-03T20:24:55.937Z,54.60
2023-03-03T20:27:34.354Z,54.55
2023-03-03T20:30:13.704Z,54.51
2023-03-03T20:33:07.603Z,54.73
2023-03-03T20:35:52.828Z,54.75
2023-03-03T20:38:36.289Z,54.57
2023-03-03T20:41:23.648Z,54.47
2023-03-03T20:44:16.512Z,54.73
2023-03-03T20:46:58.295Z,54.73
2023-03-03T20:49:45.451Z,54.55
2023-03-03T20:52:34.354Z,54.67
2023-03-03T20:55:12.932Z,55.07
2023-03-03T20:58:20.098Z,54.92
2023-03-03T21:01:23.618Z,54.70
2023-03-03T21:03:55.695Z,54.70
2023-03-03T21:06:44.816Z,54.52
2023-03-03T21:09:37.716Z,54.30
2023-03-03T21:12:28.251Z,54.39
2023-03-03T21:15:23.543Z,54.14
2023-03-03T21:17:53.688Z,54.29
2023-03-03T21:20:29.539Z,54.21
2023-03-03T21:23:01.676Z,54.23
2023-03-03T21:25:43.783Z,53.97
2023-03-03T21:28:29.330Z,54.12
2023-03-03T21:31:18.982Z,54.08
2023-03-03T21:33:57.720Z,54.30
2023-03-03T21:36:40.193Z,54.04
2023-03-03T21:39:26.663Z,54.33
2023-03-03T21:42:04.402Z,54.45
2023-03-03T21:44:42.438Z,54.36
2023-03-03T21:47:14.178Z,54.03
2023-03-03T21:49:45.988Z,54.11
2023-03-03T21:52:18.503Z,54.08
2023-03-03T21:54:50.825Z,54.27
2023-03-03T21:57:21.716Z,54.02
2023-03-03T21:59:51.797Z,54.13
2023-03-03T22:02:22.076Z,54.32
2023-03-03T22:05:10.746Z,54.04
2023-03-03T22:07:41.397Z,54.03
2023-03-03T22:10:12.088Z,54.08
2023-03-03T22:12:42.246Z,54.04
2023-03-03T22:15:12.496Z,54.00
2023-03-03T22:17:42.926Z,54.13
2023-03-03T22:23:04.377Z,54.53
2023-03-03T22:25:34.253Z,54.42
2023-03-03T22:28:25.130Z,54.24
2023-03-03T22:33:55.589Z,54.46
2023-03-03T22:39:10.590Z,54.33
2023-03-03T22:41:46.499Z,54.50
2023-03-03T22:44:17.130Z,54.29
2023-03-03T22:46:46.923Z,54.63
2023-03-03T22:49:16.975Z,54.38
2023-03-03T22:51:50.301Z,54.62
2023-03-03T22:54:20.458Z,54.25
2023-03-03T22:56:51.401Z,54.55
2023-03-03T22:59:21.868Z,54.39
2023-03-03T23:01:52.236Z,54.53
2023-03-03T23:07:04.165Z,54.59
2023-03-03T23:09:34.559Z,54.75
2023-03-03T23:12:04.886Z,54.81
2023-03-03T23:14:43.654Z,54.72
2023-03-03T23:17:22.801Z,54.79
2023-03-03T23:19:53.132Z,54.84
2023-03-03T23:22:23.120Z,54.92
2023-03-03T23:24:53.299Z,55.03
2023-03-03T23:27:23.124Z,55.00
2023-03-03T23:30:14.469Z,54.63
2023-03-03T23:32:44.826Z,54.78
2023-03-03T23:35:15.475Z,54.64
2023-03-03T23:38:03.775Z,55.03
2023-03-03T23:40:34.867Z,54.65
2023-03-03T23:43:05.996Z,54.71
2023-03-03T23:45:36.602Z,54.76
2023-03-03T23:48:07.130Z,54.50
2023-03-03T23:50:39.435Z,54.28
2023-03-03T23:53:11.308Z,54.48
2023-03-03T23:55:41.395Z,54.71
2023-03-03T23:58:11.840Z,54.94
